North Cape May, New Jersey
Current Conditions -  °F | °C
As of 1:35 PM on Wednesday 26 Nov 2014 (Local Time) from KWWD Reporting Station
Overcast Overcast  
Wind Chill: 30°   Ceiling: 900
Heat Index: 39°   Visibility: 6mi
Dew Point: 36°   Wind: 18mph
Humidity: 87%   Direction: 360°N
Pressure: 29.81"   Gusts: 25mph
Location:  38.9876°N, 74.9167°W
Report Text: KWWD 261835Z AUTO 36016G22KT 6SM BKN009 OVC014 04/02 A2981 RMK AO1 P0014
Loading
Personal Weather Stations






























Interactive Weather Map New forecast layout! Learn more

10-Day Weather Forecast

Advertisements
Track Severe Weather on mobile